Trout Lake, Michigan
Current Conditions -  °F | °C
As of 9:33 AM on Saturday 22 Nov 2014 (Local Time) from KERY Reporting Station
Overcast Overcast  
Wind Chill: 22°   Ceiling: 1700
Heat Index: 33°   Visibility: 10mi
Dew Point: 29°   Wind: 20mph
Humidity: 84%   Direction: 220°SW
Pressure: 29.76"   Gusts: 26mph
Location:  46.19°N, 85.02°W
Report Text: KERY 221433Z AUTO 22017G23KT 10SM BKN017 OVC100 01/M02 A2976 RMK AO2 T00071017
Loading
Personal Weather Stations






























Interactive Weather Map New forecast layout! Learn more

10-Day Weather Forecast

Advertisements
Track Severe Weather on mobile